createdAt,value
2019-04-01T00:01:12.333Z,102432.77
2019-04-01T00:06:17.898Z,102441.58
2019-04-01T00:11:23.413Z,102447.36
2019-04-01T00:16:29.160Z,102449.64
2019-04-01T00:21:34.427Z,102449.89
2019-04-01T00:26:39.775Z,102459.44
2019-04-01T00:31:45.259Z,102454.23
2019-04-01T00:36:50.505Z,102462.61
2019-04-01T00:42:03.533Z,102468.83
2019-04-01T00:47:09.013Z,102468.75
2019-04-01T00:52:14.245Z,102474.17
2019-04-01T00:57:20.205Z,102472.41
2019-04-01T01:02:25.607Z,102478.63
2019-04-01T01:07:31.658Z,102484.01
2019-04-01T01:12:36.906Z,102493.05
2019-04-01T01:17:42.306Z,102485.30
2019-04-01T01:22:47.943Z,102496.36
2019-04-01T01:27:53.188Z,102493.47
2019-04-01T01:32:59.804Z,102488.46
2019-04-01T01:38:05.140Z,102500.70
2019-04-01T01:43:10.499Z,102498.77
2019-04-01T01:48:16.001Z,102504.72
2019-04-01T01:53:21.523Z,102503.05
2019-04-01T01:58:26.780Z,102511.39
2019-04-01T02:03:31.868Z,102506.53
2019-04-01T02:08:37.193Z,102504.69
2019-04-01T02:13:42.451Z,102516.05
2019-04-01T02:18:47.921Z,102512.65
2019-04-01T02:23:54.423Z,102527.47
2019-04-01T02:29:00.144Z,102534.77
2019-04-01T02:34:05.454Z,102529.81
2019-04-01T02:39:11.809Z,102542.30
2019-04-01T02:44:17.386Z,102553.66
2019-04-01T02:49:22.728Z,102555.18
2019-04-01T02:54:28.191Z,102558.71
2019-04-01T02:59:33.747Z,102576.08
2019-04-01T03:04:39.101Z,102580.22
2019-04-01T03:09:44.447Z,102575.33
2019-04-01T03:14:50.126Z,102575.31
2019-04-01T03:19:55.389Z,102583.84
2019-04-01T03:25:00.872Z,102592.48
2019-04-01T03:30:06.835Z,102596.97
2019-04-01T03:35:12.229Z,102606.66
2019-04-01T03:40:18.358Z,102609.06
2019-04-01T03:45:23.726Z,102605.60
2019-04-01T03:50:28.995Z,102613.07
2019-04-01T03:55:34.159Z,102614.34
2019-04-01T04:00:39.269Z,102625.64
2019-04-01T04:05:44.496Z,102626.55
2019-04-01T04:10:49.896Z,102623.40
2019-04-01T04:15:55.381Z,102629.33
2019-04-01T04:21:01.096Z,102648.00
2019-04-01T04:26:06.558Z,102657.06
2019-04-01T04:31:12.125Z,102683.25
2019-04-01T04:36:17.697Z,102691.84
2019-04-01T04:41:23.074Z,102688.98
2019-04-01T04:46:28.464Z,102696.53
2019-04-01T04:51:34.174Z,102694.70
2019-04-01T04:56:39.770Z,102699.11
2019-04-01T05:01:45.273Z,102708.61
2019-04-01T05:06:50.692Z,102719.19
2019-04-01T05:11:56.158Z,102721.64
2019-04-01T05:17:01.691Z,102736.03
2019-04-01T05:22:07.841Z,102739.69
2019-04-01T05:27:15.717Z,102749.88
2019-04-01T05:32:22.509Z,102751.18
2019-04-01T05:37:28.074Z,102757.00
2019-04-01T05:42:33.315Z,102768.48
2019-04-01T05:47:40.445Z,102773.24
2019-04-01T05:52:47.002Z,102769.77
2019-04-01T05:57:53.088Z,102786.69
2019-04-01T06:02:58.569Z,102782.31
2019-04-01T06:08:05.234Z,102784.63
2019-04-01T06:13:10.700Z,102797.36
2019-04-01T06:18:16.368Z,102806.80
2019-04-01T06:23:21.639Z,102798.02
2019-04-01T06:28:27.070Z,102803.48
2019-04-01T06:33:32.562Z,102806.30
2019-04-01T06:38:38.313Z,102806.16
2019-04-01T06:43:43.743Z,102819.59
2019-04-01T06:48:49.125Z,102830.63
2019-04-01T06:53:55.147Z,102823.73
2019-04-01T06:59:00.669Z,102832.57
2019-04-01T07:04:06.409Z,102844.78
2019-04-01T07:09:11.986Z,102846.54
2019-04-01T07:14:17.372Z,102851.20
2019-04-01T07:19:22.874Z,102852.97
2019-04-01T07:24:28.484Z,102859.59
2019-04-01T07:29:34.050Z,102859.12
2019-04-01T07:34:39.707Z,102860.52
2019-04-01T07:39:45.075Z,102865.55
2019-04-01T07:44:50.508Z,102883.41
2019-04-01T07:49:55.841Z,102883.98
2019-04-01T07:55:01.503Z,102879.95
2019-04-01T08:00:10.031Z,102884.74
2019-04-01T08:05:15.400Z,102893.81
2019-04-01T08:10:20.622Z,102889.92
2019-04-01T08:15:25.965Z,102897.53
2019-04-01T08:20:31.705Z,102898.42
2019-04-01T08:25:37.591Z,102895.08
2019-04-01T08:30:42.971Z,102897.34
2019-04-01T08:35:48.393Z,102908.25
2019-04-01T08:40:53.712Z,102900.28
2019-04-01T08:45:59.210Z,102909.26
2019-04-01T08:51:04.912Z,102910.23
2019-04-01T08:56:10.150Z,102910.89
2019-04-01T09:01:15.509Z,102916.10
2019-04-01T09:06:20.721Z,102914.90
2019-04-01T09:11:28.169Z,102907.79
2019-04-01T09:16:34.779Z,102913.02
2019-04-01T09:21:40.397Z,102913.83
2019-04-01T09:26:45.998Z,102918.45
2019-04-01T09:31:51.769Z,102922.92
2019-04-01T09:36:57.329Z,102919.39
2019-04-01T09:42:03.089Z,102916.81
2019-04-01T09:47:08.831Z,102908.52
2019-04-01T09:52:14.415Z,102918.02
2019-04-01T09:57:19.846Z,102921.44
2019-04-01T10:02:31.739Z,102927.02
2019-04-01T10:07:32.570Z,102918.23
2019-04-01T10:12:38.125Z,102929.31
2019-04-01T10:17:43.503Z,102929.31
2019-04-01T10:22:48.825Z,102936.13
2019-04-01T10:27:54.495Z,102929.64
2019-04-01T10:33:02.229Z,102933.92
2019-04-01T10:38:07.262Z,102940.64
2019-04-01T10:43:13.964Z,102938.73
2019-04-01T10:48:19.876Z,102946.73
2019-04-01T10:53:25.220Z,102942.54
2019-04-01T10:58:30.808Z,102942.45
2019-04-01T11:03:36.225Z,102949.44
2019-04-01T11:08:41.789Z,102948.33
2019-04-01T11:13:47.236Z,102940.44
2019-04-01T11:18:52.590Z,102948.33
2019-04-01T11:23:58.987Z,102947.53
2019-04-01T11:29:05.576Z,102948.85
2019-04-01T11:34:10.865Z,102941.94
2019-04-01T11:39:16.540Z,102944.16
2019-04-01T11:44:22.674Z,102931.95
2019-04-01T11:49:28.586Z,102932.14
2019-04-01T11:54:34.212Z,102930.23
2019-04-01T11:59:39.871Z,102920.55
2019-04-01T12:04:45.933Z,102926.05
2019-04-01T12:09:52.417Z,102920.25
2019-04-01T12:14:58.691Z,102919.42
2019-04-01T12:20:06.735Z,102919.38
2019-04-01T12:25:11.942Z,102918.97
2019-04-01T12:30:19.633Z,102917.69
2019-04-01T12:35:24.981Z,102907.94
2019-04-01T12:40:31.353Z,102898.80
2019-04-01T12:45:36.822Z,102898.72
2019-04-01T12:50:42.446Z,102892.44
2019-04-01T12:55:48.020Z,102886.84
2019-04-01T13:00:53.550Z,102882.38
2019-04-01T13:05:58.950Z,102884.59
2019-04-01T13:11:05.332Z,102881.84
2019-04-01T13:16:10.714Z,102867.23
2019-04-01T13:21:16.292Z,102872.98
2019-04-01T13:26:22.433Z,102865.53
2019-04-01T13:31:27.896Z,102866.35
2019-04-01T13:36:33.559Z,102873.48
2019-04-01T13:41:42.603Z,102847.42
2019-04-01T13:46:48.576Z,102840.64
2019-04-01T13:51:53.173Z,102823.94
2019-04-01T13:56:58.407Z,102823.94
2019-04-01T14:02:04.591Z,102829.27
2019-04-01T14:07:09.777Z,102821.08
2019-04-01T14:12:15.015Z,102810.34
2019-04-01T14:17:20.185Z,102814.31
2019-04-01T14:22:25.544Z,102810.71
2019-04-01T14:27:31.042Z,102803.70
2019-04-01T14:32:36.394Z,102808.16
2019-04-01T14:37:41.544Z,102800.30
2019-04-01T14:42:47.211Z,102799.40
2019-04-01T14:47:57.599Z,102794.41
2019-04-01T14:52:59.803Z,102792.42
2019-04-01T14:58:05.142Z,102780.77
2019-04-01T15:03:10.921Z,102775.47
2019-04-01T15:08:19.426Z,102773.41
2019-04-01T15:13:23.574Z,102764.91
2019-04-01T15:18:29.106Z,102753.95
2019-04-01T15:23:35.321Z,102754.69
2019-04-01T15:28:40.667Z,102759.36
2019-04-01T15:33:45.921Z,102758.34
2019-04-01T15:38:51.528Z,102756.33
2019-04-01T15:43:57.075Z,102744.95
2019-04-01T15:49:02.656Z,102749.36
2019-04-01T15:54:07.971Z,102761.91
2019-04-01T15:59:13.875Z,102776.84
2019-04-01T16:04:19.106Z,102776.84
2019-04-01T16:09:24.565Z,102763.19
2019-04-01T16:14:30.231Z,102758.60
2019-04-01T16:19:35.675Z,102756.86
2019-04-01T16:24:41.149Z,102757.30
2019-04-01T16:29:46.507Z,102754.02
2019-04-01T16:34:51.865Z,102754.42
2019-04-01T16:39:57.437Z,102751.47
2019-04-01T16:45:03.096Z,102749.91
2019-04-01T16:50:09.609Z,102754.84
2019-04-01T16:55:18.051Z,102748.23
2019-04-01T17:00:25.977Z,102750.08
2019-04-01T17:05:34.947Z,102736.74
2019-04-01T17:10:40.570Z,102741.94
2019-04-01T17:15:46.114Z,102753.08
2019-04-01T17:20:52.502Z,102754.52
2019-04-01T17:25:58.063Z,102757.48
2019-04-01T17:31:03.647Z,102760.53
2019-04-01T17:36:11.454Z,102762.10
2019-04-01T17:41:17.185Z,102759.02
2019-04-01T17:46:22.462Z,102765.09
2019-04-01T17:51:28.073Z,102770.14
2019-04-01T17:56:33.616Z,102773.82
2019-04-01T18:01:40.287Z,102775.39
2019-04-01T18:06:45.728Z,102779.59
2019-04-01T18:11:51.005Z,102780.16
2019-04-01T18:16:56.566Z,102782.36
2019-04-01T18:22:02.245Z,102778.02
2019-04-01T18:27:07.697Z,102788.38
2019-04-01T18:32:13.360Z,102791.41
2019-04-01T18:37:18.582Z,102787.06
2019-04-01T18:42:26.663Z,102786.88
2019-04-01T18:47:30.917Z,102798.35
2019-04-01T18:52:38.356Z,102785.30
2019-04-01T18:57:43.940Z,102790.39
2019-04-01T19:02:49.256Z,102793.34
2019-04-01T19:07:54.456Z,102804.44
2019-04-01T19:13:06.071Z,102794.72
2019-04-01T19:18:06.889Z,102792.52
2019-04-01T19:23:12.501Z,102799.17
2019-04-01T19:28:18.483Z,102794.33
2019-04-01T19:33:24.354Z,102796.55
2019-04-01T19:38:30.718Z,102796.17
2019-04-01T19:43:36.034Z,102790.81
2019-04-01T19:48:41.405Z,102789.37
2019-04-01T19:53:46.865Z,102804.02
2019-04-01T19:58:53.273Z,102792.37
2019-04-01T20:04:00.056Z,102801.02
2019-04-01T20:09:07.185Z,102794.69
2019-04-01T20:14:12.411Z,102791.30
2019-04-01T20:19:17.615Z,102796.05
2019-04-01T20:24:23.234Z,102792.85
2019-04-01T20:29:30.271Z,102790.43
2019-04-01T20:34:35.491Z,102790.59
2019-04-01T20:39:40.811Z,102799.70
2019-04-01T20:44:46.302Z,102797.30
2019-04-01T20:49:51.531Z,102789.70
2019-04-01T20:54:57.001Z,102790.41
2019-04-01T21:00:02.490Z,102790.47
2019-04-01T21:05:09.650Z,102792.57
2019-04-01T21:10:15.564Z,102789.70
2019-04-01T21:15:21.628Z,102788.76
2019-04-01T21:20:26.900Z,102781.98
2019-04-01T21:25:32.249Z,102783.83
2019-04-01T21:30:37.788Z,102783.17
2019-04-01T21:35:43.072Z,102783.30
2019-04-01T21:40:48.423Z,102785.66
2019-04-01T21:45:53.664Z,102787.05
2019-04-01T21:50:58.831Z,102787.84
2019-04-01T21:56:05.285Z,102781.92
2019-04-01T22:01:11.087Z,102784.74
2019-04-01T22:06:17.335Z,102776.63
2019-04-01T22:11:23.028Z,102781.53
2019-04-01T22:16:28.898Z,102776.63
2019-04-01T22:21:34.883Z,102778.77
2019-04-01T22:26:40.869Z,102772.05
2019-04-01T22:31:46.732Z,102776.73
2019-04-01T22:36:52.495Z,102768.55
2019-04-01T22:41:59.392Z,102757.08
2019-04-01T22:47:05.674Z,102756.95
2019-04-01T22:52:11.571Z,102762.53
2019-04-01T22:57:17.206Z,102752.11
2019-04-01T23:02:23.011Z,102747.85
2019-04-01T23:07:28.870Z,102751.98
2019-04-01T23:12:34.914Z,102749.91
2019-04-01T23:17:41.812Z,102744.66
2019-04-01T23:22:48.426Z,102749.29
2019-04-01T23:27:55.521Z,102744.80
2019-04-01T23:33:01.773Z,102743.38
2019-04-01T23:38:07.555Z,102743.49
2019-04-01T23:43:13.412Z,102745.02
2019-04-01T23:48:19.079Z,102735.13
2019-04-01T23:53:24.752Z,102743.23
2019-04-01T23:58:30.522Z,102736.92
